EDW85C BIAR-BIKF
Flight info
| Callsign | EDW85C |
|---|---|
| Flight time | N/A |
| Altitude | 26000 |
| Route | ASKUR2A ASKUR DCT DEVUD DEVUD2H |
| Aircraft | A320/M-SDE3FGHIRWY/LB1 |
Departure
| Time | N/A |
|---|---|
| Airport | Akureyri International Airport (BIAR) |
Arrival
| Time | 2026-05-03 20:45 |
|---|---|
| Airport | Keflavik International Airport (BIKF) |
| Time | Latitude | Longitude | Altitude | Speed | Heading |
|---|---|---|---|---|---|
| 2026-05-03 20:15 | 65.18347 | -18.71521 | 14773 ft | 297 kts | 223° |
| 2026-05-03 20:15 | 65.16771 | -18.74652 | 15088 ft | 298 kts | 224° |
| 2026-05-03 20:15 | 65.15165 | -18.77864 | 15392 ft | 300 kts | 224° |
| 2026-05-03 20:15 | 65.13565 | -18.81066 | 15689 ft | 301 kts | 224° |
| 2026-05-03 20:16 | 65.11956 | -18.84275 | 15966 ft | 302 kts | 224° |
| 2026-05-03 20:16 | 65.10343 | -18.87474 | 16248 ft | 303 kts | 224° |
| 2026-05-03 20:16 | 65.08721 | -18.90686 | 16531 ft | 304 kts | 224° |
| 2026-05-03 20:16 | 65.07093 | -18.93906 | 16801 ft | 305 kts | 224° |
| 2026-05-03 20:17 | 65.05455 | -18.97136 | 17066 ft | 307 kts | 224° |
| 2026-05-03 20:17 | 65.03814 | -19.00364 | 17327 ft | 307 kts | 225° |
| 2026-05-03 20:17 | 65.02162 | -19.03605 | 17582 ft | 309 kts | 225° |
| 2026-05-03 20:17 | 65.00509 | -19.06837 | 17833 ft | 310 kts | 225° |
| 2026-05-03 20:18 | 64.98858 | -19.10064 | 18088 ft | 310 kts | 225° |
| 2026-05-03 20:18 | 64.97177 | -19.13346 | 18319 ft | 311 kts | 225° |
| 2026-05-03 20:18 | 64.95486 | -19.16646 | 18560 ft | 312 kts | 225° |
| 2026-05-03 20:18 | 64.93833 | -19.19864 | 18776 ft | 314 kts | 225° |
| 2026-05-03 20:19 | 64.92123 | -19.23183 | 18994 ft | 315 kts | 225° |
| 2026-05-03 20:19 | 64.90423 | -19.26477 | 19200 ft | 316 kts | 225° |
| 2026-05-03 20:19 | 64.88726 | -19.29761 | 19400 ft | 317 kts | 225° |
| 2026-05-03 20:19 | 64.87020 | -19.33059 | 19564 ft | 319 kts | 225° |
| 2026-05-03 20:20 | 64.85290 | -19.36402 | 19691 ft | 322 kts | 225° |
| 2026-05-03 20:20 | 64.83552 | -19.39764 | 19817 ft | 325 kts | 225° |
| 2026-05-03 20:20 | 64.81802 | -19.43142 | 19943 ft | 327 kts | 225° |
| 2026-05-03 20:20 | 64.80034 | -19.46544 | 20064 ft | 329 kts | 225° |
| 2026-05-03 20:21 | 64.78265 | -19.49940 | 20191 ft | 330 kts | 225° |
| 2026-05-03 20:21 | 64.76483 | -19.53343 | 20317 ft | 330 kts | 225° |
| 2026-05-03 20:21 | 64.74702 | -19.56737 | 20434 ft | 331 kts | 225° |
| 2026-05-03 20:21 | 64.72913 | -19.60145 | 20582 ft | 332 kts | 225° |
| 2026-05-03 20:22 | 64.71129 | -19.63541 | 20690 ft | 332 kts | 225° |
| 2026-05-03 20:22 | 64.69324 | -19.66969 | 20818 ft | 333 kts | 225° |
| 2026-05-03 20:22 | 64.67533 | -19.70364 | 20946 ft | 333 kts | 225° |
| 2026-05-03 20:22 | 64.65724 | -19.73796 | 21066 ft | 334 kts | 225° |
| 2026-05-03 20:23 | 64.63917 | -19.77221 | 21194 ft | 335 kts | 225° |
| 2026-05-03 20:23 | 64.62112 | -19.80627 | 21319 ft | 335 kts | 225° |
| 2026-05-03 20:23 | 64.60295 | -19.84052 | 21445 ft | 335 kts | 225° |
| 2026-05-03 20:23 | 64.58509 | -19.87412 | 21568 ft | 335 kts | 225° |
| 2026-05-03 20:24 | 64.56688 | -19.90830 | 21692 ft | 335 kts | 225° |
| 2026-05-03 20:24 | 64.54865 | -19.94242 | 21816 ft | 335 kts | 225° |
| 2026-05-03 20:24 | 64.53064 | -19.97606 | 21942 ft | 335 kts | 225° |
| 2026-05-03 20:24 | 64.51235 | -20.01019 | 22068 ft | 335 kts | 225° |
| 2026-05-03 20:25 | 64.49418 | -20.04409 | 22188 ft | 335 kts | 225° |
| 2026-05-03 20:25 | 64.47600 | -20.07788 | 22385 ft | 332 kts | 225° |
| 2026-05-03 20:25 | 64.45807 | -20.11110 | 22635 ft | 329 kts | 225° |
| 2026-05-03 20:25 | 64.44023 | -20.14412 | 22858 ft | 327 kts | 226° |
| 2026-05-03 20:26 | 64.42245 | -20.17712 | 22938 ft | 329 kts | 226° |
| 2026-05-03 20:26 | 64.40443 | -20.21057 | 22944 ft | 334 kts | 226° |
| 2026-05-03 20:26 | 64.38616 | -20.24442 | 22944 ft | 338 kts | 225° |
| 2026-05-03 20:26 | 64.36779 | -20.27828 | 22942 ft | 338 kts | 225° |
| 2026-05-03 20:27 | 64.34994 | -20.31096 | 22943 ft | 337 kts | 225° |
| 2026-05-03 20:27 | 64.33158 | -20.34444 | 22944 ft | 337 kts | 225° |
| 2026-05-03 20:27 | 64.31317 | -20.37805 | 22943 ft | 337 kts | 225° |
| 2026-05-03 20:27 | 64.29486 | -20.41156 | 22943 ft | 337 kts | 226° |
| 2026-05-03 20:28 | 64.27960 | -20.44937 | 22619 ft | 317 kts | 246° |
| 2026-05-03 20:28 | 64.27140 | -20.49505 | 21738 ft | 305 kts | 256° |
| 2026-05-03 20:28 | 64.26472 | -20.54127 | 20824 ft | 302 kts | 257° |
| 2026-05-03 20:28 | 64.25835 | -20.58703 | 19943 ft | 298 kts | 257° |
| 2026-05-03 20:29 | 64.25205 | -20.63221 | 19100 ft | 295 kts | 257° |
| 2026-05-03 20:29 | 64.24578 | -20.67665 | 18278 ft | 291 kts | 256° |
| 2026-05-03 20:29 | 64.23951 | -20.72042 | 17450 ft | 287 kts | 256° |
| 2026-05-03 20:29 | 64.23317 | -20.76394 | 16616 ft | 285 kts | 255° |
| 2026-05-03 20:30 | 64.22687 | -20.80701 | 15794 ft | 283 kts | 255° |
| 2026-05-03 20:30 | 64.22058 | -20.84981 | 15000 ft | 281 kts | 255° |
| 2026-05-03 20:30 | 64.21435 | -20.89214 | 14200 ft | 279 kts | 255° |
| 2026-05-03 20:30 | 64.20811 | -20.93461 | 13343 ft | 278 kts | 255° |
| 2026-05-03 20:31 | 64.20201 | -20.97597 | 12834 ft | 267 kts | 254° |
| 2026-05-03 20:31 | 64.19752 | -21.00602 | 12470 ft | 259 kts | 254° |
| 2026-05-03 20:31 | 64.19173 | -21.04476 | 11879 ft | 254 kts | 254° |
| 2026-05-03 20:31 | 64.18603 | -21.08297 | 11244 ft | 252 kts | 253° |
| 2026-05-03 20:32 | 64.18037 | -21.12088 | 10567 ft | 251 kts | 253° |
| 2026-05-03 20:32 | 64.17416 | -21.15647 | 10083 ft | 251 kts | 244° |
| 2026-05-03 20:32 | 64.16601 | -21.19264 | 9938 ft | 255 kts | 244° |
| 2026-05-03 20:32 | 64.15796 | -21.22889 | 9914 ft | 255 kts | 244° |
| 2026-05-03 20:33 | 64.15002 | -21.26493 | 9356 ft | 252 kts | 244° |
| 2026-05-03 20:33 | 64.14211 | -21.30066 | 8658 ft | 252 kts | 244° |
| 2026-05-03 20:33 | 64.13418 | -21.33641 | 7964 ft | 251 kts | 244° |
| 2026-05-03 20:33 | 64.12631 | -21.37171 | 7261 ft | 249 kts | 243° |
| 2026-05-03 20:34 | 64.11842 | -21.40694 | 6580 ft | 247 kts | 243° |
| 2026-05-03 20:34 | 64.11060 | -21.44179 | 5900 ft | 245 kts | 243° |
| 2026-05-03 20:34 | 64.10282 | -21.47631 | 5218 ft | 243 kts | 243° |
| 2026-05-03 20:34 | 64.09505 | -21.51077 | 4532 ft | 240 kts | 243° |
| 2026-05-03 20:35 | 64.08747 | -21.54429 | 3870 ft | 238 kts | 244° |
| 2026-05-03 20:35 | 64.07995 | -21.57763 | 3203 ft | 236 kts | 244° |
| 2026-05-03 20:35 | 64.07230 | -21.61139 | 2630 ft | 232 kts | 244° |
| 2026-05-03 20:35 | 64.06730 | -21.63343 | 2523 ft | 233 kts | 244° |
| 2026-05-03 20:36 | 64.05736 | -21.67729 | 2485 ft | 235 kts | 244° |
| 2026-05-03 20:36 | 64.05228 | -21.69969 | 2609 ft | 238 kts | 244° |
| 2026-05-03 20:36 | 64.04495 | -21.73182 | 3471 ft | 222 kts | 244° |
| 2026-05-03 20:36 | 64.03812 | -21.76179 | 3517 ft | 207 kts | 244° |
| 2026-05-03 20:37 | 64.03147 | -21.79114 | 3053 ft | 204 kts | 244° |
| 2026-05-03 20:37 | 64.02517 | -21.81893 | 2969 ft | 193 kts | 244° |
| 2026-05-03 20:37 | 64.01902 | -21.84580 | 2980 ft | 189 kts | 244° |
| 2026-05-03 20:37 | 64.01291 | -21.87249 | 2984 ft | 187 kts | 244° |
| 2026-05-03 20:38 | 64.00689 | -21.89871 | 2987 ft | 186 kts | 244° |
| 2026-05-03 20:38 | 64.00098 | -21.92463 | 2986 ft | 186 kts | 244° |
| 2026-05-03 20:38 | 63.99497 | -21.95081 | 2987 ft | 186 kts | 244° |
| 2026-05-03 20:38 | 63.98889 | -21.97736 | 2986 ft | 186 kts | 245° |
| 2026-05-03 20:39 | 63.98500 | -22.00486 | 2977 ft | 176 kts | 264° |
| 2026-05-03 20:39 | 63.98411 | -22.03163 | 3029 ft | 166 kts | 270° |
| 2026-05-03 20:39 | 63.98390 | -22.05776 | 2991 ft | 164 kts | 271° |
| 2026-05-03 20:39 | 63.98390 | -22.08368 | 2987 ft | 163 kts | 272° |
| 2026-05-03 20:40 | 63.98396 | -22.10982 | 2986 ft | 163 kts | 272° |
| 2026-05-03 20:40 | 63.98404 | -22.13552 | 2991 ft | 163 kts | 272° |
| 2026-05-03 20:40 | 63.98413 | -22.16130 | 2994 ft | 163 kts | 272° |
| 2026-05-03 20:40 | 63.98421 | -22.18709 | 2992 ft | 163 kts | 272° |
| 2026-05-03 20:41 | 63.98430 | -22.21283 | 2994 ft | 163 kts | 272° |
| 2026-05-03 20:41 | 63.98438 | -22.23897 | 2994 ft | 163 kts | 272° |
| 2026-05-03 20:41 | 63.98446 | -22.26490 | 2908 ft | 163 kts | 272° |
| 2026-05-03 20:41 | 63.98453 | -22.29054 | 2737 ft | 163 kts | 272° |
| 2026-05-03 20:42 | 63.98460 | -22.31633 | 2534 ft | 162 kts | 272° |
| 2026-05-03 20:42 | 63.98466 | -22.34182 | 2354 ft | 161 kts | 272° |
| 2026-05-03 20:42 | 63.98472 | -22.36728 | 2128 ft | 160 kts | 272° |
| 2026-05-03 20:42 | 63.98477 | -22.39254 | 1902 ft | 159 kts | 272° |
| 2026-05-03 20:43 | 63.98481 | -22.41773 | 1702 ft | 159 kts | 272° |
| 2026-05-03 20:43 | 63.98486 | -22.44288 | 1479 ft | 159 kts | 272° |
| 2026-05-03 20:43 | 63.98490 | -22.46797 | 1275 ft | 159 kts | 272° |
| 2026-05-03 20:43 | 63.98493 | -22.49295 | 1069 ft | 157 kts | 272° |
| 2026-05-03 20:44 | 63.98496 | -22.51790 | 861 ft | 158 kts | 272° |
| 2026-05-03 20:44 | 63.98498 | -22.54285 | 649 ft | 157 kts | 272° |
| 2026-05-03 20:44 | 63.98497 | -22.56762 | 424 ft | 156 kts | 271° |
| 2026-05-03 20:44 | 63.98501 | -22.59272 | 208 ft | 155 kts | 271° |
| 2026-05-03 20:45 | 63.98504 | -22.61399 | 159 ft | 81 kts | 270° |
| 2026-05-03 20:45 | 63.98506 | -22.62231 | 147 ft | 43 kts | 270° |
| 2026-05-03 20:45 | 63.98503 | -22.62896 | 138 ft | 31 kts | 269° |
| 2026-05-03 20:45 | 63.98507 | -22.63420 | 136 ft | 37 kts | 274° |
| 2026-05-03 20:46 | 63.98584 | -22.63902 | 132 ft | 26 kts | 291° |
| 2026-05-03 20:46 | 63.98685 | -22.64149 | 122 ft | 21 kts | 1° |
| 2026-05-03 20:46 | 63.98808 | -22.64152 | 124 ft | 1 kts | 358° |
| 2026-05-03 20:47 | 63.98834 | -22.64140 | 126 ft | 3 kts | 27° |
| 2026-05-03 20:47 | 63.98854 | -22.64054 | 131 ft | 9 kts | 81° |
| 2026-05-03 20:47 | 63.98854 | -22.63909 | 121 ft | 12 kts | 90° |
| 2026-05-03 20:47 | 63.98854 | -22.63717 | 125 ft | 11 kts | 90° |
| 2026-05-03 20:48 | 63.98854 | -22.63539 | 128 ft | 10 kts | 90° |
| 2026-05-03 20:48 | 63.98854 | -22.63389 | 131 ft | 12 kts | 90° |
| 2026-05-03 20:48 | 63.98854 | -22.63214 | 133 ft | 9 kts | 90° |
| 2026-05-03 20:48 | 63.98854 | -22.63051 | 134 ft | 18 kts | 90° |
| 2026-05-03 20:49 | 63.98880 | -22.62881 | 136 ft | 9 kts | 32° |
| 2026-05-03 20:49 | 63.98938 | -22.62840 | 137 ft | 11 kts | 17° |
| 2026-05-03 20:49 | 63.99036 | -22.62774 | 139 ft | 16 kts | 17° |
| 2026-05-03 20:49 | 63.99140 | -22.62700 | 140 ft | 13 kts | 17° |
| 2026-05-03 20:50 | 63.99230 | -22.62685 | 140 ft | 12 kts | 340° |
| 2026-05-03 20:50 | 63.99314 | -22.62745 | 140 ft | 14 kts | 0° |
| 2026-05-03 20:50 | 63.99377 | -22.62727 | 140 ft | 8 kts | 19° |
| 2026-05-03 20:50 | 63.99404 | -22.62702 | 140 ft | 1 kts | 23° |
| 2026-05-03 20:51 | 63.99412 | -22.62693 | 140 ft | 1 kts | 27° |
| 2026-05-03 20:51 | 63.99421 | -22.62643 | 140 ft | 1 kts | 85° |
| 2026-05-03 20:51 | 63.99421 | -22.62618 | 140 ft | 3 kts | 89° |
| 2026-05-03 20:51 | 63.99422 | -22.62551 | 140 ft | 5 kts | 90° |
| 2026-05-03 20:52 | 63.99422 | -22.62497 | 140 ft | 1 kts | 90° |
| 2026-05-03 20:52 | 63.99422 | -22.62490 | 140 ft | 0 kts | 89° |
| 2026-05-03 20:52 | 63.99422 | -22.62486 | 140 ft | 0 kts | 89° |
| 2026-05-03 20:52 | 63.99422 | -22.62481 | 140 ft | 0 kts | 89° |
| 2026-05-03 20:53 | 63.99422 | -22.62477 | 140 ft | 0 kts | 89° |
| 2026-05-03 20:53 | 63.99422 | -22.62475 | 140 ft | 0 kts | 89° |
| 2026-05-03 20:53 | 63.99422 | -22.62470 | 140 ft | 0 kts | 89° |
| 2026-05-03 20:53 | 63.99422 | -22.62468 | 140 ft | 1 kts | 89° |
| 2026-05-03 20:54 | 63.99422 | -22.62467 | 140 ft | 0 kts | 89° |
| 2026-05-03 20:54 | 63.99422 | -22.62470 | 140 ft | 0 kts | 89° |